createdAt,value
2018-10-18T00:01:32.525Z,21.57
2018-10-18T00:03:07.690Z,21.60
2018-10-18T00:04:42.477Z,20.60
2018-10-18T00:06:17.455Z,21.63
2018-10-18T00:07:52.271Z,20.63
2018-10-18T00:09:27.330Z,21.33
2018-10-18T00:11:02.255Z,21.90
2018-10-18T00:12:37.733Z,22.83
2018-10-18T00:14:12.658Z,21.27
2018-10-18T00:15:47.801Z,21.50
2018-10-18T00:17:28.011Z,21.93
2018-10-18T00:19:02.888Z,20.17
2018-10-18T00:20:37.851Z,19.60
2018-10-18T00:22:13.130Z,20.87
2018-10-18T00:23:48.170Z,19.63
2018-10-18T00:25:23.151Z,19.63
2018-10-18T00:26:57.980Z,19.87
2018-10-18T00:28:32.891Z,21.03
2018-10-18T00:30:10.031Z,20.00
2018-10-18T00:31:44.941Z,20.10
2018-10-18T00:33:19.889Z,18.97
2018-10-18T00:34:54.764Z,19.90
2018-10-18T00:36:29.669Z,19.40
2018-10-18T00:38:04.533Z,19.63
2018-10-18T00:39:39.382Z,20.90
2018-10-18T00:41:14.232Z,21.43
2018-10-18T00:42:49.072Z,20.07
2018-10-18T00:44:24.095Z,20.83
2018-10-18T00:45:58.891Z,22.43
2018-10-18T00:47:33.788Z,21.33
2018-10-18T00:49:08.665Z,22.17
2018-10-18T00:50:43.494Z,18.80
2018-10-18T00:52:18.332Z,19.53
2018-10-18T00:53:53.233Z,20.07
2018-10-18T00:55:28.021Z,18.33
2018-10-18T00:57:02.853Z,18.07
2018-10-18T00:58:37.690Z,18.37
2018-10-18T01:00:13.074Z,16.50
2018-10-18T01:01:47.791Z,17.83
2018-10-18T01:03:22.662Z,17.53
2018-10-18T01:04:57.570Z,17.60
2018-10-18T01:06:32.386Z,17.27
2018-10-18T01:08:07.398Z,16.97
2018-10-18T01:09:42.203Z,18.03
2018-10-18T01:11:17.033Z,17.50
2018-10-18T01:12:51.855Z,17.43
2018-10-18T01:14:26.832Z,16.73
2018-10-18T01:16:01.671Z,17.10
2018-10-18T01:17:36.482Z,17.27
2018-10-18T01:19:11.324Z,17.33
2018-10-18T01:20:46.196Z,17.97
2018-10-18T01:22:21.056Z,18.17
2018-10-18T01:23:55.953Z,17.27
2018-10-18T01:25:30.782Z,17.37
2018-10-18T01:27:06.397Z,17.33
2018-10-18T01:28:41.301Z,18.60
2018-10-18T01:30:16.218Z,17.53
2018-10-18T01:31:51.083Z,17.67
2018-10-18T01:33:26.022Z,17.33
2018-10-18T01:35:00.811Z,17.73
2018-10-18T01:36:35.637Z,18.33
2018-10-18T01:38:10.541Z,17.33
2018-10-18T01:39:45.434Z,17.10
2018-10-18T01:41:20.239Z,17.77
2018-10-18T01:42:55.095Z,18.17
2018-10-18T01:44:29.955Z,19.30
2018-10-18T01:46:05.253Z,17.03
2018-10-18T01:47:40.188Z,17.40
2018-10-18T01:49:15.031Z,18.17
2018-10-18T01:50:49.864Z,18.50
2018-10-18T01:52:24.740Z,20.00
2018-10-18T01:53:59.778Z,18.50
2018-10-18T01:55:34.617Z,16.73
2018-10-18T01:57:09.430Z,17.77
2018-10-18T01:58:44.260Z,19.17
2018-10-18T02:00:19.127Z,17.07
2018-10-18T02:01:53.953Z,18.40
2018-10-18T02:03:28.720Z,20.90
2018-10-18T02:05:03.613Z,19.90
2018-10-18T02:06:38.404Z,18.57
2018-10-18T02:08:13.367Z,19.37
2018-10-18T02:09:48.126Z,21.20
2018-10-18T02:11:22.958Z,19.40
2018-10-18T02:12:57.771Z,17.23
2018-10-18T02:14:32.617Z,18.60
2018-10-18T02:16:07.855Z,17.47
2018-10-18T02:17:43.007Z,18.00
2018-10-18T02:19:18.003Z,18.23
2018-10-18T02:20:52.804Z,18.87
2018-10-18T02:22:27.696Z,18.57
2018-10-18T02:24:02.686Z,18.63
2018-10-18T02:25:37.455Z,19.60
2018-10-18T02:27:12.254Z,20.03
2018-10-18T02:28:47.131Z,20.00
2018-10-18T02:30:22.227Z,19.77
2018-10-18T02:31:56.901Z,19.30
2018-10-18T02:33:31.856Z,18.87
2018-10-18T02:35:07.098Z,18.07
2018-10-18T02:36:42.124Z,18.73
2018-10-18T02:38:16.912Z,18.30
2018-10-18T02:39:51.817Z,18.67
2018-10-18T02:41:26.622Z,20.60
2018-10-18T02:43:01.429Z,18.77
2018-10-18T02:44:36.239Z,18.77
2018-10-18T02:46:11.131Z,19.67
2018-10-18T02:47:45.958Z,20.00
2018-10-18T02:49:20.778Z,19.53
2018-10-18T02:50:55.622Z,20.83
2018-10-18T02:52:30.388Z,19.70
2018-10-18T02:54:05.506Z,18.87
2018-10-18T02:55:40.291Z,18.47
2018-10-18T02:57:15.129Z,18.77
2018-10-18T02:58:49.909Z,18.33
2018-10-18T03:00:24.807Z,19.47
2018-10-18T03:01:59.841Z,19.03
2018-10-18T03:03:34.627Z,18.53
2018-10-18T03:05:09.486Z,19.93
2018-10-18T03:06:50.722Z,19.37
2018-10-18T03:08:25.560Z,17.47
2018-10-18T03:10:00.394Z,17.67
2018-10-18T03:11:35.218Z,17.03
2018-10-18T03:13:10.042Z,19.47
2018-10-18T03:14:44.908Z,18.63
2018-10-18T03:16:19.685Z,21.27
2018-10-18T03:17:54.557Z,20.53
2018-10-18T03:19:29.464Z,21.07
2018-10-18T03:21:04.324Z,20.40
2018-10-18T03:22:39.690Z,21.00
2018-10-18T03:24:14.552Z,19.73
2018-10-18T03:25:49.347Z,20.87
2018-10-18T03:27:24.269Z,20.47
2018-10-18T03:28:59.139Z,21.63
2018-10-18T03:30:34.003Z,19.70
2018-10-18T03:32:08.914Z,21.47
2018-10-18T03:33:43.727Z,21.37
2018-10-18T03:35:18.548Z,21.40
2018-10-18T03:36:53.407Z,21.80
2018-10-18T03:38:28.240Z,20.90
2018-10-18T03:40:03.117Z,21.67
2018-10-18T03:41:37.964Z,19.67
2018-10-18T03:43:12.807Z,19.03
2018-10-18T03:44:47.627Z,19.17
2018-10-18T03:46:22.448Z,18.50
2018-10-18T03:47:57.389Z,19.40
2018-10-18T03:49:32.111Z,19.13
2018-10-18T03:51:06.975Z,19.10
2018-10-18T03:52:41.800Z,20.43
2018-10-18T03:54:16.681Z,19.20
2018-10-18T03:55:51.463Z,20.30
2018-10-18T03:57:26.331Z,20.40
2018-10-18T03:59:01.157Z,19.77
2018-10-18T04:00:36.027Z,20.80
2018-10-18T04:02:10.876Z,18.70
2018-10-18T04:03:45.687Z,19.13
2018-10-18T04:05:20.605Z,20.70
2018-10-18T04:06:55.400Z,20.17
2018-10-18T04:08:30.185Z,20.47
2018-10-18T04:10:05.415Z,20.90
2018-10-18T04:11:41.107Z,20.30
2018-10-18T04:13:16.037Z,19.87
2018-10-18T04:14:50.802Z,20.37
2018-10-18T04:16:25.867Z,22.97
2018-10-18T04:18:00.824Z,19.53
2018-10-18T04:19:35.543Z,21.47
2018-10-18T04:21:10.352Z,22.07
2018-10-18T04:22:45.162Z,21.67
2018-10-18T04:24:19.980Z,20.90
2018-10-18T04:25:54.894Z,22.73
2018-10-18T04:27:29.687Z,22.37
2018-10-18T04:29:04.723Z,21.73
2018-10-18T04:30:39.595Z,21.93
2018-10-18T04:32:14.492Z,22.27
2018-10-18T04:33:49.293Z,22.17
2018-10-18T04:35:24.346Z,21.17
2018-10-18T04:36:59.259Z,21.37
2018-10-18T04:38:34.210Z,24.17
2018-10-18T04:40:09.014Z,20.50
2018-10-18T04:41:43.861Z,21.80
2018-10-18T04:43:18.691Z,23.20
2018-10-18T04:44:53.498Z,23.23
2018-10-18T04:46:28.359Z,22.63
2018-10-18T04:48:03.386Z,23.07
2018-10-18T04:49:38.039Z,22.60
2018-10-18T04:51:12.936Z,21.70
2018-10-18T04:52:47.743Z,22.50
2018-10-18T04:54:22.640Z,22.97
2018-10-18T04:55:57.504Z,24.10
2018-10-18T04:57:32.361Z,22.90
2018-10-18T04:59:07.313Z,23.17
2018-10-18T05:00:42.195Z,35.83
2018-10-18T05:02:17.059Z,22.20
2018-10-18T05:03:51.900Z,23.50
2018-10-18T05:05:38.105Z,24.23
2018-10-18T05:07:13.028Z,22.80
2018-10-18T05:08:47.891Z,22.27
2018-10-18T05:10:22.812Z,21.77
2018-10-18T05:11:57.665Z,22.53
2018-10-18T05:13:32.494Z,22.63
2018-10-18T05:15:08.322Z,23.00
2018-10-18T05:16:49.660Z,21.13
2018-10-18T05:18:24.753Z,23.10
2018-10-18T05:19:59.548Z,25.23
2018-10-18T05:21:34.548Z,22.07
2018-10-18T05:23:09.725Z,22.23
2018-10-18T05:24:44.677Z,22.93
2018-10-18T05:26:19.566Z,21.17
2018-10-18T05:27:54.363Z,20.20
2018-10-18T05:29:29.204Z,20.90
2018-10-18T05:31:04.132Z,23.23
2018-10-18T05:32:39.726Z,21.53
2018-10-18T05:34:14.593Z,21.13
2018-10-18T05:35:49.453Z,20.57
2018-10-18T05:37:24.801Z,21.73
2018-10-18T05:38:59.831Z,20.20
2018-10-18T05:40:34.709Z,20.47
2018-10-18T05:42:09.855Z,21.33
2018-10-18T05:43:44.667Z,22.57
2018-10-18T05:45:19.702Z,21.13
2018-10-18T05:46:54.660Z,22.37
2018-10-18T05:48:29.414Z,20.83
2018-10-18T05:50:04.683Z,24.67
2018-10-18T05:51:39.527Z,30.37
2018-10-18T05:53:14.538Z,25.93
2018-10-18T05:54:49.275Z,25.40
2018-10-18T05:56:24.163Z,23.90
2018-10-18T05:57:59.093Z,25.60
2018-10-18T05:59:34.021Z,21.47
2018-10-18T06:01:09.149Z,20.70
2018-10-18T06:02:44.488Z,21.27
2018-10-18T06:04:19.457Z,19.57
2018-10-18T06:05:54.440Z,19.63
2018-10-18T06:07:29.360Z,20.77
2018-10-18T06:09:07.339Z,21.50
2018-10-18T06:10:53.619Z,19.30
2018-10-18T06:12:28.591Z,19.47
2018-10-18T06:14:03.630Z,20.07
2018-10-18T06:15:38.546Z,19.33
2018-10-18T06:17:13.520Z,19.77
2018-10-18T06:18:49.001Z,20.30
2018-10-18T06:20:24.027Z,18.73
2018-10-18T06:21:59.082Z,22.00
2018-10-18T06:23:33.981Z,22.90
2018-10-18T06:25:09.404Z,22.47
2018-10-18T06:26:44.424Z,21.43
2018-10-18T06:28:19.358Z,21.03
2018-10-18T06:29:54.274Z,20.27
2018-10-18T06:31:29.157Z,22.23
2018-10-18T06:33:04.223Z,20.60
2018-10-18T06:34:39.075Z,20.80
2018-10-18T06:36:14.188Z,20.17
2018-10-18T06:37:49.347Z,21.13
2018-10-18T06:39:24.364Z,21.90
2018-10-18T06:40:59.394Z,21.50
2018-10-18T06:42:34.334Z,23.70
2018-10-18T06:44:09.478Z,21.20
2018-10-18T06:45:44.428Z,21.33
2018-10-18T06:47:19.428Z,22.10
2018-10-18T06:48:54.677Z,21.57
2018-10-18T06:50:29.980Z,21.47
2018-10-18T06:52:05.424Z,21.27
2018-10-18T06:53:41.184Z,21.77
2018-10-18T06:55:16.187Z,20.20
2018-10-18T06:56:51.363Z,21.97
2018-10-18T06:58:26.901Z,22.83
2018-10-18T07:00:02.014Z,21.73
2018-10-18T07:01:37.117Z,27.10
2018-10-18T07:03:12.018Z,22.93
2018-10-18T07:04:47.093Z,22.60
2018-10-18T07:06:22.006Z,21.23
2018-10-18T07:07:57.028Z,21.27
2018-10-18T07:09:32.003Z,21.20
2018-10-18T07:11:07.240Z,21.60
2018-10-18T07:12:42.271Z,20.20
2018-10-18T07:14:17.211Z,21.47
2018-10-18T07:15:52.255Z,21.97
2018-10-18T07:17:27.331Z,20.00
2018-10-18T07:19:02.320Z,22.30
2018-10-18T07:20:37.263Z,21.73
2018-10-18T07:22:12.185Z,21.83
2018-10-18T07:23:47.108Z,21.23
2018-10-18T07:25:22.132Z,21.70
2018-10-18T07:26:57.195Z,21.20
2018-10-18T07:28:32.407Z,21.50
2018-10-18T07:30:08.975Z,20.80
2018-10-18T07:31:43.866Z,21.77
2018-10-18T07:33:18.816Z,22.20
2018-10-18T07:34:54.017Z,22.50
2018-10-18T07:36:29.062Z,21.53
2018-10-18T07:38:04.043Z,20.50
2018-10-18T07:39:39.077Z,23.27
2018-10-18T07:41:14.372Z,22.10
2018-10-18T07:42:49.423Z,24.23
2018-10-18T07:44:24.327Z,24.23
2018-10-18T07:45:59.261Z,21.87
2018-10-18T07:47:34.276Z,24.17
2018-10-18T07:49:09.256Z,23.33
2018-10-18T07:50:44.201Z,24.77
2018-10-18T07:52:19.163Z,24.90
2018-10-18T07:53:54.132Z,24.07
2018-10-18T07:55:29.185Z,26.63
2018-10-18T07:57:04.430Z,23.77
2018-10-18T07:58:39.402Z,24.53
2018-10-18T08:00:15.721Z,24.90
2018-10-18T08:01:50.528Z,24.23
2018-10-18T08:03:25.485Z,25.23
2018-10-18T08:05:00.426Z,26.77
2018-10-18T08:06:35.359Z,25.43
2018-10-18T08:08:10.381Z,25.93
2018-10-18T08:09:45.980Z,27.37
2018-10-18T08:11:21.156Z,25.70
2018-10-18T08:12:56.115Z,25.50
2018-10-18T08:14:30.980Z,25.47
2018-10-18T08:16:06.215Z,25.73
2018-10-18T08:17:41.601Z,31.57
2018-10-18T08:19:16.758Z,25.97
2018-10-18T08:20:52.438Z,25.47
2018-10-18T08:22:27.562Z,24.93
2018-10-18T08:24:02.453Z,25.80
2018-10-18T08:25:37.344Z,27.30
2018-10-18T08:27:12.324Z,27.90
2018-10-18T08:28:47.259Z,26.47
2018-10-18T08:30:22.143Z,25.83
2018-10-18T08:31:57.111Z,30.63
2018-10-18T08:33:32.076Z,29.10
2018-10-18T08:35:08.368Z,31.73
2018-10-18T08:36:43.366Z,31.03
2018-10-18T08:38:19.558Z,30.67
2018-10-18T08:39:55.002Z,29.80
2018-10-18T08:41:29.928Z,30.83
2018-10-18T08:43:05.017Z,29.90
2018-10-18T08:44:39.856Z,30.07
2018-10-18T08:46:14.830Z,31.30
2018-10-18T08:47:49.943Z,31.73
2018-10-18T08:49:24.900Z,30.53
2018-10-18T08:50:59.817Z,32.73
2018-10-18T08:52:34.936Z,30.97
2018-10-18T08:54:09.860Z,31.30
2018-10-18T08:55:44.797Z,32.87
2018-10-18T08:57:19.897Z,32.27
2018-10-18T08:58:54.773Z,31.83
2018-10-18T09:00:29.789Z,33.00
2018-10-18T09:02:05.120Z,34.93
2018-10-18T09:03:40.008Z,34.23
2018-10-18T09:05:15.002Z,35.03
2018-10-18T09:06:49.950Z,36.63
2018-10-18T09:08:24.893Z,37.97
2018-10-18T09:09:59.893Z,38.13
2018-10-18T09:11:34.907Z,38.63
2018-10-18T09:13:09.874Z,37.17
2018-10-18T09:14:44.777Z,36.67
2018-10-18T09:16:19.882Z,36.33
2018-10-18T09:17:54.802Z,37.30
2018-10-18T09:19:29.708Z,38.00
2018-10-18T09:21:04.712Z,38.10
2018-10-18T09:22:39.673Z,38.70
2018-10-18T09:24:14.599Z,37.80
2018-10-18T09:25:49.641Z,36.97
2018-10-18T09:27:24.545Z,38.43
2018-10-18T09:28:59.588Z,37.57
2018-10-18T09:30:34.512Z,38.23
2018-10-18T09:32:09.638Z,37.83
2018-10-18T09:33:44.681Z,38.23
2018-10-18T09:35:19.615Z,37.03
2018-10-18T09:36:54.561Z,38.30
2018-10-18T09:38:29.493Z,38.63
2018-10-18T09:40:05.135Z,37.10
2018-10-18T09:41:40.113Z,38.33
2018-10-18T09:43:15.106Z,36.13
2018-10-18T09:44:49.983Z,38.07
2018-10-18T09:46:24.934Z,39.50
2018-10-18T09:47:59.880Z,37.33
2018-10-18T09:49:34.779Z,35.60
2018-10-18T09:51:09.841Z,39.33
2018-10-18T09:52:44.862Z,38.93
2018-10-18T09:54:19.863Z,38.23
2018-10-18T09:55:54.820Z,40.37
2018-10-18T09:57:29.684Z,40.17
2018-10-18T09:59:04.908Z,39.23
2018-10-18T10:00:45.173Z,39.23
2018-10-18T10:02:25.409Z,40.27
2018-10-18T10:04:00.381Z,40.03
2018-10-18T10:05:35.305Z,39.93
2018-10-18T10:07:10.395Z,39.23
2018-10-18T10:08:45.213Z,38.80
2018-10-18T10:10:20.147Z,38.20
2018-10-18T10:11:55.104Z,34.20
2018-10-18T10:13:30.143Z,36.63
2018-10-18T10:15:06.290Z,36.63
2018-10-18T10:16:41.347Z,36.25
2018-10-18T10:18:16.511Z,36.65
2018-10-18T10:19:51.427Z,36.83
2018-10-18T10:21:26.395Z,39.10
2018-10-18T10:23:01.639Z,39.40
2018-10-18T10:24:36.680Z,39.13
2018-10-18T10:26:11.683Z,39.57
2018-10-18T10:27:46.692Z,40.43
2018-10-18T10:29:21.822Z,38.03
2018-10-18T10:30:56.803Z,37.85
2018-10-18T10:32:31.709Z,36.27
2018-10-18T10:34:07.945Z,36.83
2018-10-18T10:35:42.999Z,38.47
2018-10-18T10:37:17.848Z,35.63
2018-10-18T10:38:52.882Z,36.77
2018-10-18T10:40:27.772Z,36.97
2018-10-18T10:42:02.849Z,38.37
2018-10-18T10:43:37.903Z,36.55
2018-10-18T10:45:13.523Z,36.63
2018-10-18T10:46:48.320Z,35.83
2018-10-18T10:48:23.356Z,36.43
2018-10-18T10:49:58.262Z,38.97
2018-10-18T10:51:33.240Z,39.38
2018-10-18T10:53:08.193Z,36.80
2018-10-18T10:54:43.184Z,40.75
2018-10-18T10:56:18.336Z,35.85
2018-10-18T10:57:53.285Z,39.58
2018-10-18T10:59:28.305Z,37.85
2018-10-18T11:01:09.121Z,40.33
2018-10-18T11:02:44.029Z,40.57
2018-10-18T11:04:19.039Z,40.23
2018-10-18T11:05:54.104Z,40.23
2018-10-18T11:07:29.027Z,38.73
2018-10-18T11:09:04.981Z,40.15
2018-10-18T11:10:39.785Z,38.23
2018-10-18T11:12:14.808Z,37.80
2018-10-18T11:13:49.961Z,37.10
2018-10-18T11:15:24.921Z,36.10
2018-10-18T11:16:59.928Z,36.45
2018-10-18T11:18:35.964Z,38.88
2018-10-18T11:20:10.908Z,39.10
2018-10-18T11:21:46.042Z,37.45
2018-10-18T11:23:20.953Z,37.42
2018-10-18T11:24:55.996Z,38.67
2018-10-18T11:26:31.402Z,37.50
2018-10-18T11:28:09.183Z,37.90
2018-10-18T11:29:44.199Z,33.85
2018-10-18T11:31:19.180Z,36.08
2018-10-18T11:32:54.376Z,37.33
2018-10-18T11:34:29.398Z,37.80
2018-10-18T11:36:04.448Z,33.70
2018-10-18T11:37:39.451Z,35.80
2018-10-18T11:39:14.399Z,33.45
2018-10-18T11:40:49.492Z,36.05
2018-10-18T11:42:24.639Z,35.95
2018-10-18T11:43:59.735Z,35.33
2018-10-18T11:45:34.710Z,35.85
2018-10-18T11:47:11.385Z,32.78
2018-10-18T11:48:46.441Z,33.10
2018-10-18T11:50:21.444Z,33.67
2018-10-18T11:51:56.660Z,32.53
2018-10-18T11:53:31.636Z,33.60
2018-10-18T11:55:06.901Z,35.23
2018-10-18T11:56:42.190Z,33.38
2018-10-18T11:58:17.268Z,33.60
2018-10-18T11:59:52.263Z,31.68
2018-10-18T12:01:27.377Z,31.47
2018-10-18T12:03:02.441Z,34.30
2018-10-18T12:04:37.447Z,31.82
2018-10-18T12:06:12.581Z,32.83
2018-10-18T12:07:47.802Z,31.07
2018-10-18T12:09:22.859Z,31.27
2018-10-18T12:10:58.105Z,30.80
2018-10-18T12:12:33.035Z,28.87
2018-10-18T12:14:09.075Z,28.23
2018-10-18T12:15:43.886Z,27.13
2018-10-18T12:17:18.893Z,26.48
2018-10-18T12:18:53.919Z,27.80
2018-10-18T12:20:29.137Z,26.82
2018-10-18T12:22:04.180Z,28.20
2018-10-18T12:23:39.114Z,27.85
2018-10-18T12:25:14.636Z,28.07
2018-10-18T12:26:49.718Z,27.20
2018-10-18T12:28:24.657Z,26.55
2018-10-18T12:29:59.641Z,25.27
2018-10-18T12:31:34.628Z,23.47
2018-10-18T12:33:09.574Z,24.67
2018-10-18T12:34:51.392Z,24.65
2018-10-18T12:36:26.333Z,23.50
2018-10-18T12:38:01.266Z,23.45
2018-10-18T12:39:36.283Z,21.07
2018-10-18T12:41:11.413Z,19.90
2018-10-18T12:42:47.758Z,18.20
2018-10-18T12:44:22.802Z,18.55
2018-10-18T12:45:57.806Z,19.75
2018-10-18T12:47:38.975Z,20.40
2018-10-18T12:49:14.164Z,21.60
2018-10-18T12:50:49.938Z,21.68
2018-10-18T12:52:26.479Z,21.02
2018-10-18T12:54:02.034Z,19.12
2018-10-18T12:55:38.720Z,19.85
2018-10-18T12:57:14.762Z,19.17
2018-10-18T12:58:50.457Z,20.77
2018-10-18T13:00:26.751Z,21.25
2018-10-18T13:02:04.325Z,19.92
2018-10-18T13:03:39.351Z,20.05
2018-10-18T13:05:15.789Z,20.55
2018-10-18T13:06:53.233Z,20.92
2018-10-18T13:08:28.763Z,21.90
2018-10-18T13:10:05.318Z,20.48
2018-10-18T13:11:41.606Z,19.87
2018-10-18T13:13:18.170Z,21.07
2018-10-18T13:14:53.157Z,19.35
2018-10-18T13:16:30.329Z,19.80
2018-10-18T13:18:06.019Z,21.55
2018-10-18T13:19:41.124Z,20.67
2018-10-18T13:21:16.085Z,20.32
2018-10-18T13:22:51.030Z,21.65
2018-10-18T13:24:26.071Z,18.12
2018-10-18T13:26:01.034Z,18.95
2018-10-18T13:27:36.987Z,19.42
2018-10-18T13:29:11.932Z,20.52
2018-10-18T13:30:46.960Z,21.00
2018-10-18T13:32:21.977Z,22.58
2018-10-18T13:33:57.071Z,21.93
2018-10-18T13:35:32.005Z,22.85
2018-10-18T13:37:07.103Z,25.10
2018-10-18T13:38:42.134Z,28.00
2018-10-18T13:40:17.113Z,24.10
2018-10-18T13:41:52.352Z,25.62
2018-10-18T13:43:27.232Z,23.35
2018-10-18T13:45:02.737Z,24.70
2018-10-18T13:46:38.508Z,23.40
2018-10-18T13:48:13.428Z,23.43
2018-10-18T13:49:48.965Z,21.97
2018-10-18T13:51:23.909Z,23.85
2018-10-18T13:52:58.941Z,24.47
2018-10-18T13:54:34.092Z,24.23
2018-10-18T13:56:09.822Z,22.90
2018-10-18T13:57:44.795Z,24.37
2018-10-18T13:59:31.110Z,24.55
2018-10-18T14:01:06.128Z,23.03
2018-10-18T14:02:41.130Z,23.05
2018-10-18T14:04:16.165Z,22.83
2018-10-18T14:05:51.086Z,22.65
2018-10-18T14:07:26.260Z,23.62
2018-10-18T14:09:01.209Z,23.12
2018-10-18T14:10:36.337Z,23.30
2018-10-18T14:12:11.358Z,24.43
2018-10-18T14:13:46.337Z,23.92
2018-10-18T14:15:21.310Z,23.70
2018-10-18T14:16:56.400Z,24.02
2018-10-18T14:18:31.890Z,25.65
2018-10-18T14:20:09.126Z,23.80
2018-10-18T14:21:44.400Z,25.08
2018-10-18T14:23:20.489Z,24.10
2018-10-18T14:24:55.481Z,23.83
2018-10-18T14:26:30.804Z,26.17
2018-10-18T14:28:08.405Z,24.98
2018-10-18T14:29:43.454Z,25.00
2018-10-18T14:31:18.377Z,25.65
2018-10-18T14:32:53.304Z,26.15
2018-10-18T14:34:28.521Z,23.53
2018-10-18T14:36:03.669Z,23.47
2018-10-18T14:37:38.747Z,23.20
2018-10-18T14:39:13.741Z,24.73
2018-10-18T14:40:48.797Z,24.15
2018-10-18T14:42:23.953Z,26.20
2018-10-18T14:43:58.980Z,26.27
2018-10-18T14:45:33.883Z,24.85
2018-10-18T14:47:08.921Z,23.87
2018-10-18T14:48:43.822Z,25.83
2018-10-18T14:50:18.859Z,25.93
2018-10-18T14:51:53.781Z,25.27
2018-10-18T14:53:28.731Z,25.30
2018-10-18T14:55:03.688Z,26.47
2018-10-18T14:56:38.620Z,25.83
2018-10-18T14:58:13.581Z,25.32
2018-10-18T14:59:48.529Z,26.67
2018-10-18T15:01:23.469Z,25.90
2018-10-18T15:02:58.389Z,25.00
2018-10-18T15:04:33.392Z,25.10
2018-10-18T15:06:08.374Z,24.40
2018-10-18T15:07:43.352Z,25.33
2018-10-18T15:09:18.370Z,26.33
2018-10-18T15:10:53.471Z,26.47
2018-10-18T15:12:28.336Z,24.97
2018-10-18T15:14:03.330Z,27.60
2018-10-18T15:15:38.240Z,26.30
2018-10-18T15:17:13.195Z,26.60
2018-10-18T15:18:48.055Z,25.07
2018-10-18T15:20:23.252Z,25.90
2018-10-18T15:21:58.328Z,26.20
2018-10-18T15:23:33.302Z,26.47
2018-10-18T15:25:09.068Z,26.87
2018-10-18T15:26:44.252Z,25.60
2018-10-18T15:28:19.009Z,24.07
2018-10-18T15:29:53.975Z,22.40
2018-10-18T15:31:28.939Z,23.53
2018-10-18T15:33:04.150Z,23.93
2018-10-18T15:34:39.035Z,25.37
2018-10-18T15:36:13.939Z,24.90
2018-10-18T15:37:49.102Z,24.73
2018-10-18T15:39:24.035Z,23.80
2018-10-18T15:40:58.948Z,23.27
2018-10-18T15:42:33.849Z,24.30
2018-10-18T15:44:09.346Z,23.10
2018-10-18T15:45:44.340Z,22.50
2018-10-18T15:47:19.428Z,22.37
2018-10-18T15:48:54.315Z,22.50
2018-10-18T15:50:29.250Z,24.53
2018-10-18T15:52:04.392Z,23.87
2018-10-18T15:53:39.434Z,23.20
2018-10-18T15:55:14.409Z,22.53
2018-10-18T15:56:49.431Z,21.90
2018-10-18T15:58:24.349Z,22.40
2018-10-18T15:59:59.410Z,23.23
2018-10-18T16:01:34.288Z,22.93
2018-10-18T16:03:09.312Z,21.83
2018-10-18T16:04:44.292Z,22.60
2018-10-18T16:06:19.292Z,23.90
2018-10-18T16:07:54.275Z,22.47
2018-10-18T16:09:29.211Z,23.63
2018-10-18T16:11:04.243Z,22.83
2018-10-18T16:12:39.610Z,21.97
2018-10-18T16:14:14.596Z,23.00
2018-10-18T16:15:49.660Z,22.03
2018-10-18T16:17:24.548Z,22.10
2018-10-18T16:18:59.453Z,22.13
2018-10-18T16:20:34.489Z,21.43
2018-10-18T16:22:09.433Z,22.57
2018-10-18T16:23:44.365Z,23.17
2018-10-18T16:25:19.489Z,24.10
2018-10-18T16:26:54.510Z,22.97
2018-10-18T16:28:29.454Z,23.77
2018-10-18T16:30:04.740Z,24.80
2018-10-18T16:31:39.628Z,23.27
2018-10-18T16:33:14.622Z,23.70
2018-10-18T16:34:49.591Z,22.50
2018-10-18T16:36:24.694Z,26.27
2018-10-18T16:37:59.756Z,24.07
2018-10-18T16:39:34.828Z,23.30
2018-10-18T16:41:09.955Z,24.23
2018-10-18T16:42:44.804Z,26.33
2018-10-18T16:44:19.952Z,24.67
2018-10-18T16:45:54.980Z,24.10
2018-10-18T16:47:29.934Z,25.03
2018-10-18T16:49:05.459Z,25.17
2018-10-18T16:50:40.465Z,25.70
2018-10-18T16:52:15.629Z,24.70
2018-10-18T16:53:57.164Z,25.40
2018-10-18T16:55:32.135Z,25.20
2018-10-18T16:57:07.112Z,26.13
2018-10-18T16:58:42.093Z,25.60
2018-10-18T17:00:17.098Z,23.80
2018-10-18T17:01:52.013Z,25.43
2018-10-18T17:03:26.933Z,26.43
2018-10-18T17:05:02.080Z,24.33
2018-10-18T17:06:37.028Z,24.30
2018-10-18T17:08:12.001Z,25.43
2018-10-18T17:09:46.905Z,25.60
2018-10-18T17:11:22.036Z,25.43
2018-10-18T17:12:56.899Z,25.83
2018-10-18T17:14:32.036Z,25.50
2018-10-18T17:16:07.388Z,25.60
2018-10-18T17:17:42.272Z,25.43
2018-10-18T17:19:17.396Z,25.13
2018-10-18T17:20:52.465Z,25.47
2018-10-18T17:22:27.457Z,25.33
2018-10-18T17:24:02.439Z,25.87
2018-10-18T17:25:37.648Z,25.53
2018-10-18T17:27:13.732Z,25.97
2018-10-18T17:28:48.772Z,26.37
2018-10-18T17:30:25.218Z,26.07
2018-10-18T17:32:01.601Z,24.57
2018-10-18T17:33:36.887Z,27.37
2018-10-18T17:35:13.688Z,25.27
2018-10-18T17:36:48.728Z,26.43
2018-10-18T17:38:23.642Z,25.27
2018-10-18T17:40:01.519Z,25.23
2018-10-18T17:41:36.617Z,26.80
2018-10-18T17:43:11.550Z,26.90
2018-10-18T17:44:46.431Z,27.20
2018-10-18T17:46:21.355Z,25.70
2018-10-18T17:47:56.346Z,25.77
2018-10-18T17:49:31.265Z,25.70
2018-10-18T17:51:06.257Z,27.03
2018-10-18T17:52:41.260Z,26.73
2018-10-18T17:54:16.396Z,26.10
2018-10-18T17:55:51.423Z,27.13
2018-10-18T17:57:26.366Z,27.17
2018-10-18T17:59:01.452Z,26.67
2018-10-18T18:00:36.407Z,27.90
2018-10-18T18:02:11.552Z,27.53
2018-10-18T18:03:46.594Z,27.57
2018-10-18T18:05:21.726Z,26.57
2018-10-18T18:06:56.796Z,26.97
2018-10-18T18:08:31.719Z,29.57
2018-10-18T18:10:09.571Z,28.67
2018-10-18T18:11:44.672Z,27.13
2018-10-18T18:13:19.628Z,29.20
2018-10-18T18:14:54.651Z,27.53
2018-10-18T18:16:29.657Z,27.00
2018-10-18T18:18:04.809Z,27.47
2018-10-18T18:19:39.704Z,27.47
2018-10-18T18:21:14.770Z,27.33
2018-10-18T18:22:49.980Z,29.67
2018-10-18T18:24:24.853Z,29.53
2018-10-18T18:25:59.856Z,28.30
2018-10-18T18:27:34.796Z,29.60
2018-10-18T18:29:09.650Z,29.27
2018-10-18T18:30:44.492Z,31.03
2018-10-18T18:32:19.303Z,29.53
2018-10-18T18:33:54.172Z,30.97
2018-10-18T18:35:29.020Z,29.47
2018-10-18T18:37:03.843Z,29.37
2018-10-18T18:38:38.751Z,31.43
2018-10-18T18:40:13.588Z,27.97
2018-10-18T18:41:48.481Z,28.67
2018-10-18T18:43:23.276Z,30.17
2018-10-18T18:45:03.610Z,30.13
2018-10-18T18:46:40.296Z,28.73
2018-10-18T18:48:15.144Z,27.63
2018-10-18T18:49:49.994Z,28.23
2018-10-18T18:51:24.915Z,30.17
2018-10-18T18:53:00.102Z,28.37
2018-10-18T18:54:34.926Z,28.67
2018-10-18T18:56:09.841Z,30.80
2018-10-18T18:57:44.718Z,28.03
2018-10-18T18:59:19.575Z,29.47
2018-10-18T19:00:54.447Z,27.57
2018-10-18T19:02:29.267Z,28.07
2018-10-18T19:04:04.156Z,29.60
2018-10-18T19:05:38.973Z,28.47
2018-10-18T19:07:13.874Z,27.00
2018-10-18T19:08:48.695Z,27.50
2018-10-18T19:10:23.530Z,27.53
2018-10-18T19:11:58.425Z,28.03
2018-10-18T19:13:33.353Z,28.77
2018-10-18T19:15:08.964Z,28.23
2018-10-18T19:16:43.934Z,27.87
2018-10-18T19:18:18.917Z,29.40
2018-10-18T19:19:53.897Z,28.67
2018-10-18T19:21:28.753Z,28.87
2018-10-18T19:23:03.643Z,30.00
2018-10-18T19:24:38.594Z,30.07
2018-10-18T19:26:13.716Z,28.87
2018-10-18T19:27:48.541Z,30.07
2018-10-18T19:29:25.149Z,29.60
2018-10-18T19:31:00.035Z,30.33
2018-10-18T19:32:35.004Z,30.20
2018-10-18T19:34:09.878Z,29.93
2018-10-18T19:35:44.772Z,29.57
2018-10-18T19:37:19.663Z,28.47
2018-10-18T19:38:54.864Z,30.43
2018-10-18T19:40:29.973Z,30.73
2018-10-18T19:42:04.881Z,32.00
2018-10-18T19:43:39.727Z,30.90
2018-10-18T19:45:14.571Z,31.50
2018-10-18T19:46:49.430Z,30.87
2018-10-18T19:48:24.268Z,29.63
2018-10-18T19:49:59.157Z,28.93
2018-10-18T19:51:34.098Z,31.13
2018-10-18T19:53:09.221Z,30.67
2018-10-18T19:54:44.116Z,29.83
2018-10-18T19:56:18.985Z,29.77
2018-10-18T19:57:53.845Z,31.17
2018-10-18T19:59:28.695Z,31.27
2018-10-18T20:01:03.549Z,30.13
2018-10-18T20:02:38.362Z,29.73
2018-10-18T20:04:13.278Z,30.87
2018-10-18T20:05:48.030Z,29.63
2018-10-18T20:07:22.973Z,30.37
2018-10-18T20:08:57.825Z,31.97
2018-10-18T20:10:32.735Z,31.70
2018-10-18T20:12:07.582Z,30.83
2018-10-18T20:13:42.425Z,30.83
2018-10-18T20:15:17.418Z,30.03
2018-10-18T20:16:53.648Z,30.70
2018-10-18T20:18:28.502Z,31.67
2018-10-18T20:20:03.521Z,32.20
2018-10-18T20:21:38.303Z,29.27
2018-10-18T20:23:13.177Z,30.90
2018-10-18T20:24:48.078Z,31.17
2018-10-18T20:26:23.177Z,29.60